Portada
METAR-TAF:

METAR-TAF

Aeropuertos :

Tremecén, Argelia

Aeropuerto Zenata

latitud: 35-01N, longitud: 001-28W, altitud: 247 m

Observación

El informe se hizo hace 21 minutos, a las 21:30 UTC
Viento 2 kt del sur
Temperatura 9°C
Humedad 61%
Presión 1017 hPa
Visibilidad 10 km o más
sin nubes por debajo de 1500 m y sin presencia de cumulonimbus.

METAR: DAON 222130Z 17002KT CAVOK 09/02 Q1017

Hora: 22:51 (21:51 UTC)

Pronóstico

El informe se hizo hace 4 horas y 51 minutos, a las 17:00 UTC
Pronóstico válido del 22 a las 18 UTC al 23 a las 18 UTC
Viento 5 kt del norte-noroeste
Visibilidad 10 km o más
Escasas nubes a una altura de 3000 ft
Nubes dispersas a una altura de 23300 ft
Evolucionando progresivamente
del 22 a las 19 UTC al 22 a las 21 UTC
Viento 2 kt con dirección variable
Visibilidad 10 km o más
sin nubes por debajo de 1500 m y sin presencia de cumulonimbus.

TAF: DAON 221700Z 2218/2318 34005KT 9999 FEW030 SCT233 BECMG 2219/2221 VRB02KT CAVOK

Observaciones y pronósticos meteorológicos de más de 4000 aeropuertos (mensajes METAR y TAF).

Los puntos amarillos y rojos representan las estaciones disponibles.

Ponga el ratón en el punto deseado para ver el nombre de la estación.

Haga clic para ver las observaciones y los pronósticos meteorológicos.

Para cambiar el mapa : haga clic en los botones verdes con una cruz de color negro para hacer un zoom, en el botón verde con un guión para alejar o en las flechas verdes para mapas adyacentes.


METAR-TAF: